createdAt,value
2019-05-01T00:02:43.554Z,11.29
2019-05-01T00:05:24.018Z,11.26
2019-05-01T00:07:57.712Z,11.09
2019-05-01T00:10:29.090Z,11.09
2019-05-01T00:13:01.789Z,11.04
2019-05-01T00:15:36.506Z,10.96
2019-05-01T00:18:08.414Z,11.02
2019-05-01T00:20:41.610Z,10.93
2019-05-01T00:23:14.328Z,10.97
2019-05-01T00:25:46.091Z,10.88
2019-05-01T00:28:18.322Z,10.90
2019-05-01T00:30:50.980Z,10.78
2019-05-01T00:33:22.431Z,10.89
2019-05-01T00:35:55.382Z,10.76
2019-05-01T00:38:31.755Z,10.71
2019-05-01T00:41:02.793Z,10.66
2019-05-01T00:43:35.390Z,10.60
2019-05-01T00:46:07.146Z,10.70
2019-05-01T00:48:39.651Z,10.63
2019-05-01T00:51:12.126Z,10.48
2019-05-01T00:53:44.365Z,10.37
2019-05-01T00:56:44.685Z,10.41
2019-05-01T00:59:37.837Z,10.45
2019-05-01T01:02:16.275Z,10.57
2019-05-01T01:04:47.391Z,10.47
2019-05-01T01:07:18.882Z,10.37
2019-05-01T01:09:49.994Z,10.33
2019-05-01T01:12:21.651Z,10.41
2019-05-01T01:14:52.930Z,10.31
2019-05-01T01:17:24.406Z,10.27
2019-05-01T01:19:57.030Z,10.56
2019-05-01T01:22:28.591Z,10.36
2019-05-01T01:25:00.309Z,10.28
2019-05-01T01:27:33.380Z,10.16
2019-05-01T01:30:05.001Z,10.15
2019-05-01T01:32:37.585Z,10.44
2019-05-01T01:35:08.992Z,10.30
2019-05-01T01:37:40.998Z,10.15
2019-05-01T01:40:13.639Z,10.40
2019-05-01T01:42:47.877Z,10.24
2019-05-01T01:45:39.102Z,10.22
2019-05-01T01:48:14.093Z,10.17
2019-05-01T01:50:47.574Z,10.14
2019-05-01T01:53:22.695Z,9.88
2019-05-01T01:55:56.151Z,10.07
2019-05-01T01:58:29.259Z,9.75
2019-05-01T02:01:18.820Z,9.75
2019-05-01T02:03:56.865Z,9.93
2019-05-01T02:06:29.727Z,9.89
2019-05-01T02:09:01.012Z,9.77
2019-05-01T02:11:33.886Z,10.04
2019-05-01T02:14:05.185Z,9.84
2019-05-01T02:16:36.540Z,9.81
2019-05-01T02:19:07.918Z,9.87
2019-05-01T02:21:39.170Z,9.62
2019-05-01T02:24:12.803Z,9.62
2019-05-01T02:26:47.708Z,9.54
2019-05-01T02:29:25.536Z,9.75
2019-05-01T02:32:00.132Z,9.58
2019-05-01T02:34:33.746Z,9.51
2019-05-01T02:37:06.528Z,9.65
2019-05-01T02:39:39.302Z,9.72
2019-05-01T02:42:14.813Z,9.68
2019-05-01T02:44:52.782Z,9.58
2019-05-01T02:47:32.711Z,9.52
2019-05-01T02:50:14.545Z,9.46
2019-05-01T02:52:47.007Z,9.62
2019-05-01T02:55:27.736Z,9.52
2019-05-01T02:58:01.693Z,9.49
2019-05-01T03:00:33.289Z,9.46
2019-05-01T03:03:06.386Z,9.53
2019-05-01T03:05:38.007Z,9.52
2019-05-01T03:08:09.999Z,9.55
2019-05-01T03:10:41.148Z,9.69
2019-05-01T03:13:16.423Z,9.59
2019-05-01T03:15:49.153Z,9.65
2019-05-01T03:18:26.152Z,9.45
2019-05-01T03:24:05.425Z,9.43
2019-05-01T03:26:37.673Z,9.59
2019-05-01T03:29:09.520Z,9.46
2019-05-01T03:31:40.950Z,9.70
2019-05-01T03:34:13.973Z,9.56
2019-05-01T03:36:46.990Z,9.44
2019-05-01T03:39:19.285Z,9.43
2019-05-01T03:41:51.223Z,9.40
2019-05-01T03:44:22.716Z,9.43
2019-05-01T03:46:54.795Z,9.38
2019-05-01T03:49:27.083Z,9.38
2019-05-01T03:51:58.890Z,9.54
2019-05-01T03:54:30.683Z,9.43
2019-05-01T03:57:02.787Z,9.39
2019-05-01T03:59:36.079Z,9.52
2019-05-01T04:02:34.385Z,9.59
2019-05-01T04:05:06.989Z,9.47
2019-05-01T04:07:40.865Z,9.41
2019-05-01T04:10:12.554Z,9.49
2019-05-01T04:12:44.009Z,9.28
2019-05-01T04:15:17.518Z,9.38
2019-05-01T04:17:53.229Z,9.48
2019-05-01T04:20:25.911Z,9.33
2019-05-01T04:22:57.064Z,9.31
2019-05-01T04:25:28.311Z,9.24
2019-05-01T04:28:04.614Z,9.21
2019-05-01T04:31:03.556Z,9.27
2019-05-01T04:33:36.326Z,9.20
2019-05-01T04:36:13.874Z,9.23
2019-05-01T04:38:46.613Z,9.20
2019-05-01T04:41:19.491Z,9.15
2019-05-01T04:43:51.177Z,9.18
2019-05-01T04:46:22.599Z,9.30
2019-05-01T04:48:55.250Z,9.22
2019-05-01T04:51:27.008Z,9.34
2019-05-01T04:53:59.436Z,9.27
2019-05-01T04:56:30.969Z,9.33
2019-05-01T04:59:03.882Z,9.43
2019-05-01T05:02:01.227Z,9.46
2019-05-01T05:04:32.994Z,9.47
2019-05-01T05:07:04.345Z,9.43
2019-05-01T05:09:43.876Z,9.54
2019-05-01T05:12:33.351Z,9.58
2019-05-01T05:15:24.240Z,9.56
2019-05-01T05:17:55.705Z,9.61
2019-05-01T05:20:28.500Z,9.65
2019-05-01T05:23:00.956Z,9.66
2019-05-01T05:25:33.815Z,9.86
2019-05-01T05:28:05.634Z,9.81
2019-05-01T05:30:38.107Z,9.80
2019-05-01T05:33:39.023Z,9.87
2019-05-01T05:36:12.381Z,9.80
2019-05-01T05:39:00.544Z,9.94
2019-05-01T05:41:33.477Z,9.89
2019-05-01T05:44:05.039Z,9.75
2019-05-01T05:46:36.345Z,9.89
2019-05-01T05:49:07.704Z,9.90
2019-05-01T05:51:53.267Z,9.68
2019-05-01T05:54:45.924Z,9.77
2019-05-01T05:57:40.503Z,9.71
2019-05-01T06:00:44.690Z,9.49
2019-05-01T06:03:38.054Z,9.77
2019-05-01T06:06:31.504Z,9.57
2019-05-01T06:09:13.308Z,9.77
2019-05-01T06:11:59.074Z,9.63
2019-05-01T06:15:06.367Z,9.58
2019-05-01T06:17:48.184Z,9.66
2019-05-01T06:20:31.852Z,9.66
2019-05-01T06:23:25.836Z,9.49
2019-05-01T06:26:20.522Z,9.35
2019-05-01T06:28:56.102Z,9.37
2019-05-01T06:31:27.869Z,9.59
2019-05-01T06:33:59.955Z,9.56
2019-05-01T06:36:31.813Z,9.54
2019-05-01T06:39:11.625Z,9.53
2019-05-01T06:41:44.745Z,9.85
2019-05-01T06:44:33.350Z,9.82
2019-05-01T06:47:09.654Z,9.94
2019-05-01T06:50:07.700Z,10.11
2019-05-01T06:52:42.171Z,10.38
2019-05-01T06:55:15.605Z,10.96
2019-05-01T06:57:49.098Z,11.34
2019-05-01T07:00:20.458Z,11.09
2019-05-01T07:02:55.594Z,11.04
2019-05-01T07:05:30.603Z,10.68
2019-05-01T07:08:04.435Z,10.70
2019-05-01T07:10:43.569Z,10.94
2019-05-01T07:13:11.541Z,11.03
2019-05-01T07:15:43.309Z,10.98
2019-05-01T07:18:18.861Z,10.95
2019-05-01T07:20:53.609Z,11.13
2019-05-01T07:23:25.651Z,11.18
2019-05-01T07:25:57.003Z,11.33
2019-05-01T07:28:34.416Z,11.52
2019-05-01T07:31:11.584Z,12.16
2019-05-01T07:33:46.996Z,12.64
2019-05-01T07:36:17.051Z,12.55
2019-05-01T07:38:49.001Z,12.64
2019-05-01T07:41:20.025Z,12.57
2019-05-01T07:44:10.775Z,13.13
2019-05-01T07:46:56.142Z,12.92
2019-05-01T07:49:57.146Z,13.49
2019-05-01T07:52:29.620Z,13.87
2019-05-01T07:55:01.579Z,13.87
2019-05-01T07:57:39.460Z,15.72
2019-05-01T08:00:14.435Z,16.88
2019-05-01T08:02:45.644Z,16.09
2019-05-01T08:05:16.734Z,16.21
2019-05-01T08:07:50.890Z,15.87
2019-05-01T08:10:25.848Z,17.30
2019-05-01T08:13:00.253Z,17.14
2019-05-01T08:15:32.716Z,17.90
2019-05-01T08:18:28.047Z,17.73
2019-05-01T08:21:29.920Z,18.58
2019-05-01T08:24:05.160Z,18.38
2019-05-01T08:26:39.739Z,18.37
2019-05-01T08:29:28.437Z,19.24
2019-05-01T08:32:10.264Z,19.26
2019-05-01T08:34:48.878Z,18.62
2019-05-01T08:37:17.809Z,18.80
2019-05-01T08:39:49.702Z,18.93
2019-05-01T08:42:22.689Z,18.74
2019-05-01T08:45:11.677Z,18.59
2019-05-01T08:47:46.985Z,18.24
2019-05-01T08:50:24.238Z,18.68
2019-05-01T08:52:53.052Z,18.41
2019-05-01T08:55:24.300Z,18.45
2019-05-01T08:57:55.807Z,18.51
2019-05-01T09:00:31.052Z,18.64
2019-05-01T09:03:08.286Z,18.57
2019-05-01T09:05:35.968Z,18.95
2019-05-01T09:08:09.247Z,18.85
2019-05-01T09:10:41.536Z,18.44
2019-05-01T09:13:14.551Z,19.13
2019-05-01T09:15:48.297Z,19.04
2019-05-01T09:18:19.454Z,19.16
2019-05-01T09:20:52.777Z,19.02
2019-05-01T09:23:23.930Z,18.47
2019-05-01T09:26:14.666Z,18.82
2019-05-01T09:28:43.308Z,18.67
2019-05-01T09:31:16.297Z,18.90
2019-05-01T09:33:52.459Z,18.97
2019-05-01T09:36:25.145Z,18.82
2019-05-01T09:38:58.748Z,18.41
2019-05-01T09:41:38.253Z,18.89
2019-05-01T09:44:10.026Z,18.74
2019-05-01T09:46:38.738Z,18.75
2019-05-01T09:49:14.340Z,18.98
2019-05-01T09:51:53.062Z,19.14
2019-05-01T09:54:58.236Z,18.88
2019-05-01T09:57:29.384Z,19.15
2019-05-01T10:00:00.530Z,19.06
2019-05-01T10:02:32.718Z,18.97
2019-05-01T10:05:06.636Z,19.04
2019-05-01T10:07:39.290Z,19.41
2019-05-01T10:10:11.766Z,18.85
2019-05-01T10:12:46.997Z,19.43
2019-05-01T10:15:16.078Z,19.52
2019-05-01T10:17:47.330Z,19.33
2019-05-01T10:20:18.390Z,19.14
2019-05-01T10:22:49.459Z,18.98
2019-05-01T10:25:20.592Z,19.45
2019-05-01T10:27:58.112Z,19.39
2019-05-01T10:30:45.940Z,19.47
2019-05-01T10:33:21.156Z,19.37
2019-05-01T10:36:18.622Z,19.80
2019-05-01T10:38:46.905Z,19.44
2019-05-01T10:41:18.752Z,19.01
2019-05-01T10:43:50.098Z,19.37
2019-05-01T10:46:21.297Z,19.43
2019-05-01T10:48:57.035Z,19.31
2019-05-01T10:51:29.885Z,19.45
2019-05-01T10:54:04.012Z,19.79
2019-05-01T10:56:35.082Z,19.67
2019-05-01T10:59:06.946Z,19.61
2019-05-01T11:02:04.561Z,19.47
2019-05-01T11:04:37.627Z,19.64
2019-05-01T11:07:09.294Z,19.91
2019-05-01T11:09:42.303Z,19.86
2019-05-01T11:12:14.969Z,19.78
2019-05-01T11:14:46.138Z,20.07
2019-05-01T11:17:17.229Z,20.15
2019-05-01T11:19:48.290Z,20.12
2019-05-01T11:22:19.782Z,20.21
2019-05-01T11:24:50.824Z,20.21
2019-05-01T11:27:22.481Z,20.49
2019-05-01T11:29:55.208Z,20.68
2019-05-01T11:32:49.952Z,20.89
2019-05-01T11:35:49.551Z,21.15
2019-05-01T11:38:30.154Z,21.32
2019-05-01T11:41:04.776Z,21.46
2019-05-01T11:43:36.386Z,21.44
2019-05-01T11:46:10.025Z,21.18
2019-05-01T11:48:44.300Z,21.33
2019-05-01T11:51:14.629Z,21.09
2019-05-01T11:53:48.798Z,20.69
2019-05-01T11:56:21.971Z,21.09
2019-05-01T11:58:53.230Z,21.28
2019-05-01T12:01:26.210Z,21.14
2019-05-01T12:03:57.447Z,21.29
2019-05-01T12:06:29.719Z,21.42
2019-05-01T12:09:02.605Z,21.71
2019-05-01T12:11:35.392Z,21.37
2019-05-01T12:14:07.093Z,21.82
2019-05-01T12:16:56.143Z,21.65
2019-05-01T12:19:27.649Z,21.41
2019-05-01T12:21:59.013Z,21.50
2019-05-01T12:24:31.713Z,21.50
2019-05-01T12:27:02.841Z,21.54
2019-05-01T12:29:35.423Z,21.84
2019-05-01T12:32:06.780Z,21.49
2019-05-01T12:34:39.059Z,21.58
2019-05-01T12:37:42.200Z,21.49
2019-05-01T12:40:20.404Z,21.53
2019-05-01T12:42:53.530Z,21.89
2019-05-01T12:45:24.923Z,21.46
2019-05-01T12:47:58.613Z,21.44
2019-05-01T12:50:29.856Z,21.34
2019-05-01T12:53:26.177Z,21.11
2019-05-01T12:56:17.256Z,21.33
2019-05-01T12:58:51.073Z,21.23
2019-05-01T13:01:24.101Z,21.68
2019-05-01T13:03:55.362Z,21.61
2019-05-01T13:06:27.884Z,21.32
2019-05-01T13:09:00.887Z,21.28
2019-05-01T13:11:32.023Z,21.60
2019-05-01T13:14:04.403Z,21.37
2019-05-01T13:16:36.774Z,21.62
2019-05-01T13:19:09.466Z,21.12
2019-05-01T13:21:42.043Z,21.22
2019-05-01T13:24:13.234Z,21.25
2019-05-01T13:27:11.603Z,21.69
2019-05-01T13:29:48.224Z,21.68
2019-05-01T13:32:45.690Z,21.53
2019-05-01T13:35:17.024Z,21.37
2019-05-01T13:37:48.281Z,21.39
2019-05-01T13:40:20.145Z,21.05
2019-05-01T13:42:51.218Z,21.06
2019-05-01T13:45:23.595Z,21.14
2019-05-01T13:47:55.047Z,21.13
2019-05-01T13:50:26.785Z,21.12
2019-05-01T13:52:57.940Z,21.21
2019-05-01T13:55:29.143Z,21.02
2019-05-01T13:58:01.849Z,21.15
2019-05-01T14:00:33.518Z,20.89
2019-05-01T14:03:06.710Z,21.05
2019-05-01T14:05:37.925Z,20.80
2019-05-01T14:08:09.421Z,21.05
2019-05-01T14:10:41.445Z,21.06
2019-05-01T14:13:12.792Z,20.94
2019-05-01T14:15:44.380Z,20.86
2019-05-01T14:18:15.774Z,21.13
2019-05-01T14:20:59.137Z,20.88
2019-05-01T14:23:40.800Z,20.86
2019-05-01T14:26:12.017Z,20.89
2019-05-01T14:28:45.097Z,21.01
2019-05-01T14:31:16.576Z,20.91
2019-05-01T14:33:49.645Z,20.86
2019-05-01T14:36:20.896Z,20.44
2019-05-01T14:38:53.481Z,20.47
2019-05-01T14:41:25.955Z,20.52
2019-05-01T14:43:57.103Z,20.23
2019-05-01T14:46:28.728Z,20.29
2019-05-01T14:49:01.743Z,20.29
2019-05-01T14:51:33.235Z,20.18
2019-05-01T14:54:06.092Z,20.19
2019-05-01T14:56:37.573Z,20.54
2019-05-01T14:59:08.698Z,20.42
2019-05-01T15:01:39.942Z,20.16
2019-05-01T15:04:15.695Z,20.26
2019-05-01T15:06:49.397Z,20.54
2019-05-01T15:09:20.828Z,20.21
2019-05-01T15:11:53.953Z,20.01
2019-05-01T15:14:43.715Z,20.14
2019-05-01T15:17:25.844Z,20.14
2019-05-01T15:20:05.588Z,20.05
2019-05-01T15:22:36.587Z,19.91
2019-05-01T15:25:08.803Z,19.79
2019-05-01T15:27:39.864Z,19.79
2019-05-01T15:30:12.879Z,19.85
2019-05-01T15:32:44.361Z,19.88
2019-05-01T15:35:15.482Z,19.82
2019-05-01T15:37:56.545Z,19.76
2019-05-01T15:40:33.377Z,20.10
2019-05-01T15:43:25.166Z,19.90
2019-05-01T15:45:56.649Z,19.62
2019-05-01T15:48:31.467Z,19.64
2019-05-01T15:51:02.753Z,19.33
2019-05-01T15:53:34.988Z,19.34
2019-05-01T15:56:07.766Z,19.26
2019-05-01T15:58:40.236Z,19.42
2019-05-01T16:01:12.734Z,19.30
2019-05-01T16:03:45.930Z,19.21
2019-05-01T16:06:18.326Z,19.32
2019-05-01T16:08:49.444Z,19.03
2019-05-01T16:11:39.536Z,18.90
2019-05-01T16:14:12.430Z,18.72
2019-05-01T16:16:45.501Z,18.70
2019-05-01T16:19:17.062Z,18.79
2019-05-01T16:21:49.700Z,18.62
2019-05-01T16:24:20.856Z,18.58
2019-05-01T16:26:53.107Z,18.57
2019-05-01T16:29:24.315Z,18.32
2019-05-01T16:31:57.003Z,18.31
2019-05-01T16:34:28.504Z,18.26
2019-05-01T16:37:01.006Z,17.84
2019-05-01T16:39:51.571Z,17.84
2019-05-01T16:42:43.844Z,17.79
2019-05-01T16:45:15.831Z,17.81
2019-05-01T16:47:47.082Z,17.82
2019-05-01T16:50:20.159Z,17.66
2019-05-01T16:52:51.771Z,17.72
2019-05-01T16:55:23.957Z,17.48
2019-05-01T16:57:55.499Z,17.37
2019-05-01T17:01:14.412Z,17.35
2019-05-01T17:03:57.860Z,17.36
2019-05-01T17:06:40.858Z,17.41
2019-05-01T17:09:33.159Z,16.97
2019-05-01T17:12:06.754Z,17.06
2019-05-01T17:14:38.022Z,16.96
2019-05-01T17:17:13.771Z,17.09
2019-05-01T17:19:45.499Z,16.84
2019-05-01T17:22:17.993Z,16.73
2019-05-01T17:24:50.797Z,16.70
2019-05-01T17:27:23.002Z,16.53
2019-05-01T17:29:56.853Z,16.72
2019-05-01T17:32:29.069Z,16.39
2019-05-01T17:35:06.527Z,16.37
2019-05-01T17:37:35.534Z,16.35
2019-05-01T17:40:08.881Z,16.33
2019-05-01T17:42:40.480Z,16.24
2019-05-01T17:45:12.674Z,16.26
2019-05-01T17:47:46.064Z,15.98
2019-05-01T17:50:23.405Z,15.95
2019-05-01T17:52:57.598Z,16.03
2019-05-01T17:55:30.749Z,15.82
2019-05-01T17:58:04.484Z,15.59
2019-05-01T18:00:58.837Z,15.50
2019-05-01T18:03:42.596Z,15.48
2019-05-01T18:06:26.422Z,15.44
2019-05-01T18:09:03.185Z,15.32
2019-05-01T18:11:34.945Z,15.13
2019-05-01T18:14:06.705Z,14.98
2019-05-01T18:16:40.022Z,14.94
2019-05-01T18:19:11.624Z,14.83
2019-05-01T18:21:46.773Z,14.84
2019-05-01T18:24:44.463Z,14.65
2019-05-01T18:27:49.952Z,14.56
2019-05-01T18:30:23.002Z,14.45
2019-05-01T18:32:57.771Z,14.33
2019-05-01T18:35:30.455Z,14.28
2019-05-01T18:38:11.513Z,14.15
2019-05-01T18:40:47.159Z,14.05
2019-05-01T18:43:19.779Z,14.02
2019-05-01T18:45:55.126Z,13.85
2019-05-01T18:48:27.416Z,13.84
2019-05-01T18:51:01.073Z,13.77
2019-05-01T18:53:33.902Z,13.60
2019-05-01T18:56:05.717Z,13.68
2019-05-01T18:58:44.366Z,13.62
2019-05-01T19:01:24.052Z,13.53
2019-05-01T19:03:59.691Z,13.40
2019-05-01T19:06:41.115Z,13.34
2019-05-01T19:09:15.089Z,13.22
2019-05-01T19:11:44.897Z,13.09
2019-05-01T19:14:23.511Z,13.12
2019-05-01T19:17:03.728Z,13.11
2019-05-01T19:19:38.514Z,13.00
2019-05-01T19:22:12.429Z,12.92
2019-05-01T19:24:44.920Z,12.76
2019-05-01T19:27:18.923Z,12.80
2019-05-01T19:29:49.227Z,12.75
2019-05-01T19:32:23.971Z,12.61
2019-05-01T19:34:55.477Z,12.68
2019-05-01T19:37:30.954Z,12.48
2019-05-01T19:40:03.283Z,12.36
2019-05-01T19:42:40.074Z,12.34
2019-05-01T19:45:13.951Z,12.20
2019-05-01T19:47:45.919Z,12.09
2019-05-01T19:50:19.422Z,12.03
2019-05-01T19:52:52.510Z,12.15
2019-05-01T19:55:26.443Z,12.11
2019-05-01T19:57:59.114Z,12.01
2019-05-01T20:00:59.584Z,12.05
2019-05-01T20:03:36.039Z,11.83
2019-05-01T20:06:08.155Z,11.72
2019-05-01T20:08:39.889Z,11.74
2019-05-01T20:11:11.595Z,11.62
2019-05-01T20:13:42.810Z,11.43
2019-05-01T20:16:23.933Z,11.29
2019-05-01T20:18:55.095Z,11.23
2019-05-01T20:21:27.082Z,11.20
2019-05-01T20:23:58.152Z,11.02
2019-05-01T20:26:32.015Z,10.97
2019-05-01T20:29:03.669Z,10.88
2019-05-01T20:31:35.263Z,10.85
2019-05-01T20:34:06.559Z,10.97
2019-05-01T20:36:37.826Z,10.75
2019-05-01T20:39:12.029Z,10.71
2019-05-01T20:41:43.218Z,10.65
2019-05-01T20:44:23.374Z,10.47
2019-05-01T20:46:47.591Z,10.37
2019-05-01T20:49:20.245Z,10.65
2019-05-01T20:51:51.294Z,10.37
2019-05-01T20:54:22.795Z,10.25
2019-05-01T20:57:05.048Z,10.15
2019-05-01T20:59:39.182Z,10.13
2019-05-01T21:02:11.702Z,10.21
2019-05-01T21:05:02.020Z,10.08
2019-05-01T21:07:47.468Z,10.02
2019-05-01T21:10:24.924Z,9.97
2019-05-01T21:12:56.658Z,9.88
2019-05-01T21:15:27.824Z,9.96
2019-05-01T21:18:01.398Z,9.93
2019-05-01T21:20:33.911Z,9.94
2019-05-01T21:23:10.631Z,9.77
2019-05-01T21:25:38.420Z,9.80
2019-05-01T21:28:10.796Z,9.63
2019-05-01T21:30:43.991Z,9.58
2019-05-01T21:33:15.099Z,9.57
2019-05-01T21:35:47.924Z,9.62
2019-05-01T21:38:21.152Z,9.39
2019-05-01T21:40:53.836Z,9.32
2019-05-01T21:43:33.214Z,9.27
2019-05-01T21:46:03.817Z,9.29
2019-05-01T21:48:34.976Z,9.19
2019-05-01T21:51:07.640Z,9.25
2019-05-01T21:53:42.692Z,9.29
2019-05-01T21:56:14.289Z,9.11
2019-05-01T21:58:45.439Z,9.06
2019-05-01T22:01:17.099Z,9.07
2019-05-01T22:03:52.610Z,8.96
2019-05-01T22:06:25.226Z,9.07
2019-05-01T22:08:56.709Z,8.96
2019-05-01T22:11:27.948Z,9.02
2019-05-01T22:14:00.250Z,8.97
2019-05-01T22:16:33.296Z,8.78
2019-05-01T22:19:16.335Z,8.70
2019-05-01T22:22:14.581Z,8.69
2019-05-01T22:24:53.923Z,8.54
2019-05-01T22:27:32.129Z,8.72
2019-05-01T22:30:12.614Z,8.58
2019-05-01T22:32:47.726Z,8.60
2019-05-01T22:35:25.412Z,8.55
2019-05-01T22:37:56.566Z,8.49
2019-05-01T22:41:05.521Z,8.45
2019-05-01T22:43:27.653Z,8.45
2019-05-01T22:46:01.521Z,8.35
2019-05-01T22:48:33.695Z,8.31
2019-05-01T22:51:15.385Z,8.27
2019-05-01T22:53:48.790Z,8.25
2019-05-01T22:56:20.442Z,8.19
2019-05-01T22:58:51.501Z,8.20
2019-05-01T23:01:23.291Z,8.10
2019-05-01T23:04:00.123Z,8.06
2019-05-01T23:06:31.322Z,8.08
2019-05-01T23:09:03.238Z,8.02
2019-05-01T23:11:37.851Z,7.97
2019-05-01T23:14:12.219Z,7.99
2019-05-01T23:17:03.369Z,7.97
2019-05-01T23:19:34.534Z,7.86
2019-05-01T23:22:07.790Z,7.82
2019-05-01T23:24:41.131Z,7.79
2019-05-01T23:27:12.508Z,7.66
2019-05-01T23:29:44.274Z,7.60
2019-05-01T23:32:15.408Z,7.69
2019-05-01T23:34:46.640Z,7.73
2019-05-01T23:37:20.242Z,7.72
2019-05-01T23:39:52.720Z,7.66
2019-05-01T23:42:24.106Z,7.59
2019-05-01T23:44:55.245Z,7.61
2019-05-01T23:47:27.694Z,7.57
2019-05-01T23:49:58.949Z,7.51
2019-05-01T23:52:34.028Z,7.58
2019-05-01T23:55:04.518Z,7.60
2019-05-01T23:57:37.405Z,7.66
